Time;durP1;ratioP1;P1;durP2;ratioP2;P2;SDS_P1;SDS_P2;PMS_P1;PMS_P2;Temp;Humidity;BMP_temperature;BMP_pressure;BME280_temperature;BME280_humidity;BME280_pressure;Samples;Min_cycle;Max_cycle;Signal;HPM_P1;HPM_P2
2022/11/23 00:04:47;;;;;;;1.00;0.43;;;;;;;6.82;100.00;100212.47;10434201;28;20049;-79
2022/11/23 00:09:49;;;;;;;0.35;0.35;;;;;;;6.84;100.00;100218.50;10433970;28;20052;-79
2022/11/23 00:14:51;;;;;;;0.10;0.10;;;;;;;6.85;100.00;100233.06;10452379;28;20131;-79
2022/11/23 00:19:52;;;;;;;0.20;0.15;;;;;;;6.87;100.00;100235.66;10450515;28;20045;-80
2022/11/23 00:24:54;;;;;;;0.28;0.28;;;;;;;6.90;100.00;100235.75;10434311;28;20036;-80
2022/11/23 00:29:55;;;;;;;0.00;0.00;;;;;;;6.89;100.00;100242.56;10453094;28;20083;-80
2022/11/23 00:35:02;;;;;;;0.00;0.00;;;;;;;6.89;100.00;100250.25;10438052;28;20044;-80
2022/11/23 00:40:05;;;;;;;0.32;0.30;;;;;;;6.95;100.00;100260.69;10414543;28;20141;-79
2022/11/23 00:45:08;;;;;;;0.17;0.15;;;;;;;6.98;100.00;100275.28;10417052;28;1053367;-80
2022/11/23 00:50:09;;;;;;;0.10;0.00;;;;;;;7.02;100.00;100276.25;10437991;28;20048;-80
2022/11/23 00:55:11;;;;;;;0.17;0.15;;;;;;;7.05;100.00;100286.56;10438532;28;20107;-80
2022/11/23 01:00:13;;;;;;;0.10;0.10;;;;;;;7.09;100.00;100284.16;10430084;28;20060;-80
2022/11/23 01:05:15;;;;;;;0.00;0.00;;;;;;;7.16;100.00;100295.47;10421141;28;20053;-80
2022/11/23 01:10:16;;;;;;;0.03;0.03;;;;;;;7.17;100.00;100293.75;10420493;28;20037;-80
2022/11/23 01:15:18;;;;;;;0.05;0.05;;;;;;;7.19;100.00;100305.78;10436771;28;20385;-80
2022/11/23 01:20:20;;;;;;;0.35;0.35;;;;;;;7.21;100.00;100304.13;10433883;28;20048;-80
2022/11/23 01:25:21;;;;;;;0.00;0.00;;;;;;;7.25;100.00;100305.97;10436490;28;20049;-80
2022/11/23 01:30:23;;;;;;;0.00;0.00;;;;;;;7.29;100.00;100307.81;10436068;28;20053;-81
2022/11/23 01:35:25;;;;;;;0.10;0.10;;;;;;;7.30;100.00;100309.53;10435795;28;20147;-80
2022/11/23 01:40:27;;;;;;;0.00;0.00;;;;;;;7.30;100.00;100314.66;10421667;28;20496;-80
2022/11/23 01:45:41;;;;;;;0.15;0.10;;;;;;;7.33;100.00;100323.28;10451684;28;20060;-80
2022/11/23 01:50:45;;;;;;;0.43;0.30;;;;;;;7.29;100.00;100320.63;10435073;28;20045;-79
2022/11/23 01:55:48;;;;;;;0.10;0.10;;;;;;;7.35;100.00;100316.47;10409006;28;20049;-78
2022/11/23 02:00:49;;;;;;;0.35;0.35;;;;;;;7.35;100.00;100312.25;10446857;28;20385;-80
2022/11/23 02:06:00;;;;;;;0.00;0.00;;;;;;;7.38;100.00;100312.31;10445358;28;20052;-79
2022/11/23 02:11:02;;;;;;;0.47;0.15;;;;;;;7.40;100.00;100307.25;10424923;28;20488;-80
2022/11/23 02:16:04;;;;;;;0.17;0.13;;;;;;;7.39;100.00;100292.72;10440111;28;20049;-79
2022/11/23 02:21:06;;;;;;;1.20;0.32;;;;;;;7.37;100.00;100291.78;10422986;28;20435;-79
2022/11/23 02:26:16;;;;;;;0.00;0.00;;;;;;;7.42;100.00;100272.28;10424216;28;20041;-80
2022/11/23 02:31:18;;;;;;;0.00;0.00;;;;;;;7.41;100.00;100270.56;10443397;28;20037;-79
2022/11/23 02:36:35;;;;;;;0.43;0.38;;;;;;;7.44;100.00;100255.25;10410262;28;20041;-79
2022/11/23 02:41:46;;;;;;;0.38;0.28;;;;;;;7.44;100.00;100242.44;10444248;28;20147;-80
2022/11/23 02:46:48;;;;;;;0.32;0.15;;;;;;;7.46;100.00;100235.66;10439501;28;20060;-80
2022/11/23 02:51:51;;;;;;;0.75;0.55;;;;;;;7.46;100.00;100221.16;10439022;28;20060;-81
2022/11/23 02:56:56;;;;;;;0.00;0.00;;;;;;;7.47;100.00;100204.09;10439143;28;20053;-81
2022/11/23 03:01:58;;;;;;;0.57;0.57;;;;;;;7.34;100.00;100186.63;10425823;28;20508;-80
2022/11/23 03:07:00;;;;;;;0.08;0.08;;;;;;;7.36;100.00;100185.84;10455165;28;20037;-80
2022/11/23 03:12:01;;;;;;;0.60;0.10;;;;;;;7.28;100.00;100179.66;10442442;28;20095;-79
2022/11/23 03:17:04;;;;;;;0.47;0.20;;;;;;;7.41;100.00;100178.31;10438051;28;20103;-81
2022/11/23 03:22:11;;;;;;;0.08;0.08;;;;;;;7.52;100.00;100161.50;10420296;28;20033;-80
2022/11/23 03:27:13;;;;;;;0.15;0.15;;;;;;;7.48;100.00;100134.06;10437423;28;20053;-81
2022/11/23 03:32:16;;;;;;;0.50;0.20;;;;;;;7.45;100.00;100129.69;10437093;28;20040;-81
2022/11/23 03:37:23;;;;;;;0.10;0.10;;;;;;;7.46;100.00;100115.22;10433300;28;20427;-81
2022/11/23 03:42:25;;;;;;;0.00;0.00;;;;;;;7.48;100.00;100103.31;10436193;28;20492;-80
2022/11/23 03:47:26;;;;;;;1.25;0.40;;;;;;;7.38;100.00;100101.31;10436903;28;20052;-81
2022/11/23 03:52:29;;;;;;;2.05;0.55;;;;;;;7.41;100.00;100096.28;10436250;28;20049;-82
2022/11/23 03:57:30;;;;;;;0.00;0.00;;;;;;;7.49;100.00;100088.78;10431538;28;20424;-82
2022/11/23 04:02:35;;;;;;;0.32;0.15;;;;;;;7.50;100.00;100083.69;10434002;28;20136;-82
2022/11/23 04:07:44;;;;;;;0.45;0.45;;;;;;;7.57;100.00;100074.47;10420359;28;20111;-80
2022/11/23 04:12:51;;;;;;;0.35;0.30;;;;;;;7.55;100.00;100074.44;10435870;28;20037;-80
2022/11/23 04:17:54;;;;;;;0.45;0.30;;;;;;;7.53;100.00;100065.84;10454473;28;20037;-80
2022/11/23 04:22:57;;;;;;;0.00;0.00;;;;;;;7.52;100.00;100065.81;10465962;28;20393;-81
2022/11/23 04:28:00;;;;;;;8.73;0.60;;;;;;;7.50;100.00;100060.63;10417487;28;20101;-80
2022/11/23 04:33:03;;;;;;;0.43;0.28;;;;;;;7.55;100.00;100069.31;10434866;28;20049;-80
2022/11/23 04:38:05;;;;;;;0.00;0.00;;;;;;;7.49;100.00;100069.13;10432846;28;20095;-80
2022/11/23 04:43:08;;;;;;;0.20;0.20;;;;;;;7.53;100.00;100060.72;10418555;28;20052;-80
2022/11/23 04:48:12;;;;;;;0.30;0.10;;;;;;;7.56;100.00;100071.03;10434460;28;20065;-81
2022/11/23 04:53:15;;;;;;;0.00;0.00;;;;;;;7.57;100.00;100074.47;10434766;28;20048;-82
2022/11/23 04:58:20;;;;;;;0.13;0.10;;;;;;;7.59;100.00;100070.25;10437631;28;20037;-82
2022/11/23 05:03:26;;;;;;;0.22;0.20;;;;;;;7.55;100.00;100069.31;10433689;28;20045;-81
2022/11/23 05:08:29;;;;;;;0.10;0.10;;;;;;;7.55;100.00;100063.31;10434471;28;20440;-82
2022/11/23 05:14:09;;;;;;;0.05;0.05;;;;;;;7.55;100.00;100074.44;10438769;28;20049;-81
2022/11/23 05:19:12;;;;;;;0.13;0.03;;;;;;;7.55;100.00;100064.19;10420362;28;20147;-81
2022/11/23 05:24:14;;;;;;;0.32;0.17;;;;;;;7.57;100.00;100062.50;10448666;28;20076;-83
2022/11/23 05:29:26;;;;;;;8.65;1.33;;;;;;;7.57;100.00;100066.78;10420877;28;20566;-81
2022/11/23 05:34:27;;;;;;;1.13;0.45;;;;;;;7.57;100.00;100066.78;10441822;28;20103;-82
2022/11/23 05:39:29;;;;;;;4.80;0.75;;;;;;;7.52;100.00;100064.09;10441033;28;20045;-82
2022/11/23 05:44:33;;;;;;;0.10;0.10;;;;;;;7.55;100.00;100064.19;10442294;28;20063;-82
2022/11/23 05:49:37;;;;;;;0.22;0.22;;;;;;;7.49;100.00;100068.28;10441282;28;20447;-81
2022/11/23 05:54:40;;;;;;;0.08;0.05;;;;;;;7.57;100.00;100057.38;10425017;28;20049;-82
2022/11/23 05:59:45;;;;;;;0.00;0.00;;;;;;;7.48;100.00;100057.19;10424691;28;20488;-82
2022/11/23 06:04:54;;;;;;;0.52;0.50;;;;;;;7.51;100.00;100046.97;10457696;28;20053;-81
2022/11/23 06:10:07;;;;;;;1.50;0.30;;;;;;;7.50;100.00;100045.25;10440630;28;20072;-81
2022/11/23 06:15:13;;;;;;;1.25;0.82;;;;;;;7.48;100.00;100052.03;10440460;28;20045;-81
2022/11/23 06:20:15;;;;;;;2.13;0.95;;;;;;;7.47;100.00;100056.28;10439612;28;20531;-83
2022/11/23 06:25:23;;;;;;;2.17;0.20;;;;;;;7.51;100.00;100061.50;10440576;28;20118;-81
2022/11/23 06:30:38;;;;;;;1.48;0.55;;;;;;;7.54;100.00;100057.31;10439561;28;20056;-81
2022/11/23 06:35:41;;;;;;;0.28;0.10;;;;;;;7.52;100.00;100048.72;10461646;28;20060;-81
2022/11/23 06:40:43;;;;;;;0.00;0.00;;;;;;;7.53;100.00;100040.19;10432285;28;20254;-82
2022/11/23 06:45:45;;;;;;;0.00;0.00;;;;;;;7.53;100.00;100035.06;10438681;28;20049;-82
2022/11/23 06:50:49;;;;;;;0.20;0.15;;;;;;;7.49;100.00;100037.53;10439709;28;20052;-82
2022/11/23 06:55:57;;;;;;;0.00;0.00;;;;;;;7.50;100.00;100045.25;10422652;28;20446;-82
2022/11/23 07:01:07;;;;;;;0.25;0.17;;;;;;;7.53;100.00;100045.34;10433889;28;20447;-81
2022/11/23 07:06:32;;;;;;;0.00;0.00;;;;;;;7.51;100.00;100041.00;10447511;28;20453;-81
2022/11/23 07:11:39;;;;;;;0.00;0.00;;;;;;;7.48;100.00;100052.03;10456047;28;20095;-82
2022/11/23 07:16:41;;;;;;;0.17;0.17;;;;;;;7.47;100.00;100046.03;10421603;28;20095;-82
2022/11/23 07:21:44;;;;;;;0.32;0.20;;;;;;;7.41;100.00;100042.47;10421346;28;20044;-83
2022/11/23 07:26:46;;;;;;;2.08;0.50;;;;;;;7.37;100.00;100051.75;10437073;28;20045;-81
2022/11/23 07:31:50;;;;;;;0.00;0.00;;;;;;;7.33;100.00;100057.63;10437925;28;20065;-82
2022/11/23 07:36:55;;;;;;;0.00;0.00;;;;;;;7.20;100.00;100076.94;10435767;28;20087;-82
2022/11/23 07:42:04;;;;;;;1.27;0.73;;;;;;;7.15;100.00;100110.13;10452288;28;20124;-82
2022/11/23 07:47:26;;;;;;;5.40;0.32;;;;;;;7.15;100.00;100134.88;10426084;28;20053;-83
2022/11/23 07:52:27;;;;;;;0.38;0.20;;;;;;;7.15;100.00;100151.09;10412448;28;20049;-81
2022/11/23 07:57:29;;;;;;;0.00;0.00;;;;;;;7.06;100.00;100165.34;10428875;28;20076;-82
2022/11/23 08:02:31;;;;;;;0.75;0.55;;;;;;;7.05;100.00;100184.09;10411501;28;20521;-83
2022/11/23 08:07:33;;;;;;;1.17;0.43;;;;;;;7.07;100.00;100203.84;10435800;28;20056;-82
2022/11/23 08:12:34;;;;;;;0.00;0.00;;;;;;;7.05;100.00;100217.41;10437477;28;20103;-82
2022/11/23 08:17:36;;;;;;;0.22;0.10;;;;;;;7.10;100.00;100233.81;10453329;28;20524;-82
2022/11/23 08:22:38;;;;;;;0.50;0.40;;;;;;;7.21;100.00;100245.22;10435470;28;20063;-82
2022/11/23 08:27:40;;;;;;;1.08;0.45;;;;;;;7.27;100.00;100268.44;10435542;28;20114;-81
2022/11/23 08:32:42;;;;;;;0.28;0.10;;;;;;;7.19;100.00;100269.91;10434990;28;20041;-81
2022/11/23 08:37:43;;;;;;;0.43;0.17;;;;;;;7.21;100.00;100273.41;10451570;28;20484;-82
2022/11/23 08:42:46;;;;;;;7.13;0.93;;;;;;;7.26;100.00;100274.38;10420991;28;20083;-81
2022/11/23 08:47:47;;;;;;;0.00;0.00;;;;;;;7.33;100.00;100266.91;10445127;28;20053;-83
2022/11/23 08:52:54;;;;;;;0.25;0.20;;;;;;;7.39;100.00;100254.25;10430149;28;20064;-82
2022/11/23 08:57:58;;;;;;;1.80;0.25;;;;;;;7.49;100.00;100235.72;10431930;28;20150;-82
2022/11/23 09:03:00;;;;;;;0.25;0.10;;;;;;;7.68;100.00;100220.88;10429136;28;20117;-82
2022/11/23 09:08:02;;;;;;;0.00;0.00;;;;;;;7.82;100.00;100201.59;10458682;28;20048;-81
2022/11/23 09:13:03;;;;;;;0.00;0.00;;;;;;;7.90;100.00;100184.69;10442108;28;20044;-83
2022/11/23 09:18:06;;;;;;;0.00;0.00;;;;;;;8.00;100.00;100169.53;10442422;28;20055;-82
2022/11/23 09:23:08;;;;;;;0.05;0.05;;;;;;;7.86;100.00;100146.09;10425328;28;20550;-82
2022/11/23 09:28:18;;;;;;;0.45;0.22;;;;;;;7.93;100.00;100128.31;10459643;28;20048;-82
2022/11/23 09:33:20;;;;;;;0.47;0.15;;;;;;;8.38;100.00;100105.38;10459748;28;20497;-81
2022/11/23 09:38:22;;;;;;;0.30;0.30;;;;;;;8.35;100.00;100074.53;10416256;28;20174;-82
2022/11/23 09:44:02;;;;;;;2.30;0.73;;;;;;;8.41;100.00;100051.56;10446350;28;20049;-83
2022/11/23 09:49:12;;;;;;;0.07;0.07;;;;;;;8.49;100.00;100029.53;10441017;28;20408;-84
2022/11/23 09:54:31;;;;;;;2.55;0.28;;;;;;;8.48;100.00;99975.59;10437502;28;20052;-84
2022/11/23 09:59:46;;;;;;;0.00;0.00;;;;;;;8.53;100.00;99954.28;10416523;28;20064;-84
2022/11/23 10:04:50;;;;;;;0.00;0.00;;;;;;;8.59;100.00;99925.31;10439483;28;20045;-84
2022/11/23 10:09:59;;;;;;;0.00;0.00;;;;;;;8.52;100.00;99892.66;10458876;28;20069;-82
2022/11/23 10:15:03;;;;;;;0.00;0.00;;;;;;;8.56;100.00;99868.78;10454320;28;20047;-82
2022/11/23 10:20:44;;;;;;;0.00;0.00;;;;;;;8.79;100.00;99860.56;10456852;28;20095;-83
2022/11/23 10:25:49;;;;;;;0.00;0.00;;;;;;;9.24;100.00;99863.84;10448452;28;20060;-83
2022/11/23 10:31:11;;;;;;;0.22;0.13;;;;;;;9.32;100.00;99839.13;10440481;28;20106;-83
2022/11/23 10:36:13;;;;;;;0.00;0.00;;;;;;;9.43;100.00;99827.25;10446346;28;20488;-82
2022/11/23 10:41:15;;;;;;;0.00;0.00;;;;;;;9.47;100.00;99820.44;10427924;28;20045;-81
2022/11/23 10:46:38;;;;;;;1.95;0.82;;;;;;;9.48;100.00;99807.63;10438853;28;20041;-84
2022/11/23 10:51:50;;;;;;;0.60;0.60;;;;;;;9.57;100.00;99800.91;10453998;28;20511;-82
2022/11/23 10:56:53;;;;;;;0.00;0.00;;;;;;;9.47;100.00;99789.59;10441008;28;20072;-82
2022/11/23 11:02:01;;;;;;;0.75;0.75;;;;;;;9.92;100.00;99782.41;10468970;28;20043;-81
2022/11/23 11:07:11;;;;;;;0.00;0.00;;;;;;;10.18;100.00;99756.94;10443019;28;20049;-81
2022/11/23 11:12:19;;;;;;;0.22;0.10;;;;;;;10.00;100.00;99749.91;10437268;28;20515;-82
2022/11/23 11:17:26;;;;;;;0.32;0.28;;;;;;;10.08;100.00;99758.56;10442171;28;20412;-82
2022/11/23 11:22:35;;;;;;;0.38;0.20;;;;;;;10.08;100.00;99737.97;10436440;28;20049;-82
2022/11/23 11:27:37;;;;;;;7.85;1.92;;;;;;;9.78;100.00;99733.38;10452652;28;20048;-82
2022/11/23 11:32:58;;;;;;;0.10;0.10;;;;;;;10.37;100.00;99739.09;10420118;28;20185;-82
2022/11/23 11:38:26;;;;;;;0.00;0.00;;;;;;;10.32;100.00;99736.44;10437008;28;20100;-81
2022/11/23 11:43:36;;;;;;;0.05;0.05;;;;;;;10.30;100.00;99728.72;10425223;28;20041;-81
2022/11/23 11:49:25;;;;;;;1.17;0.20;;;;;;;10.40;100.00;99724.53;10454270;28;20468;-82
2022/11/23 11:54:50;;;;;;;0.00;0.00;;;;;;;10.56;100.00;99720.38;10435775;28;20048;-81
2022/11/23 11:59:56;;;;;;;0.00;0.00;;;;;;;11.03;100.00;99716.34;10452137;28;20498;-81
2022/11/23 12:05:22;;;;;;;3.80;0.43;;;;;;;10.53;100.00;99715.19;10453299;28;20385;-81
2022/11/23 12:10:35;;;;;;;0.00;0.00;;;;;;;10.78;100.00;99710.19;10435834;28;20106;-81
2022/11/23 12:15:41;;;;;;;0.00;0.00;;;;;;;10.56;100.00;99711.75;10444287;28;20060;-82
2022/11/23 12:21:17;;;;;;;0.28;0.20;;;;;;;10.65;100.00;99714.41;10435094;28;20041;-80
2022/11/23 12:26:56;;;;;;;0.28;0.10;;;;;;;10.14;100.00;99722.59;10427577;28;20045;-81
2022/11/23 12:32:17;;;;;;;0.28;0.25;;;;;;;9.57;100.00;99723.75;10435238;28;20554;-81
2022/11/23 12:37:34;;;;;;;0.00;0.00;;;;;;;9.61;100.00;99715.22;10418191;28;20412;-80
2022/11/23 12:42:44;;;;;;;0.05;0.05;;;;;;;9.61;100.00;99712.63;10443003;28;20539;-80
2022/11/23 12:48:01;;;;;;;0.30;0.23;;;;;;;9.48;100.00;99699.66;10436764;28;20049;-80
2022/11/23 12:53:25;;;;;;;3.03;1.58;;;;;;;10.67;100.00;99697.25;10434011;28;20403;-80
2022/11/23 12:58:29;;;;;;;6.90;2.20;;;;;;;10.32;100.00;99684.97;10433325;28;20518;-80
2022/11/23 13:03:50;;;;;;;3.47;1.73;;;;;;;10.48;100.00;99671.38;10435776;28;20556;-81
2022/11/23 13:09:15;;;;;;;3.53;2.20;;;;;;;10.35;100.00;99669.53;10458006;28;20044;-81
2022/11/23 13:14:27;;;;;;;4.03;2.03;;;;;;;11.02;100.00;99662.22;10443635;28;20420;-81
2022/11/23 13:19:42;;;;;;;1.95;1.45;;;;;;;10.42;100.00;99663.63;10438630;28;20065;-80
2022/11/23 13:25:24;;;;;;;0.68;0.68;;;;;;;10.12;100.00;99662.50;10430460;28;20110;-81
2022/11/23 13:30:36;;;;;;;0.10;0.10;;;;;;;9.96;100.00;99655.50;10411013;28;20049;-81
2022/11/23 13:35:59;;;;;;;0.00;0.00;;;;;;;9.77;100.00;99654.50;10437333;28;20055;-81
2022/11/23 13:41:34;;;;;;;0.75;0.17;;;;;;;9.88;100.00;99662.31;10434500;28;20037;-80
2022/11/23 13:46:36;;;;;;;1.75;1.23;;;;;;;9.54;100.00;99665.41;10433775;28;20126;-80
2022/11/23 13:51:38;;;;;;;0.30;0.15;;;;;;;9.32;100.00;99662.63;10455413;28;20126;-81
2022/11/23 13:56:44;;;;;;;0.95;0.90;;;;;;;9.16;100.00;99671.00;10441281;28;20111;-82
2022/11/23 14:01:59;;;;;;;0.17;0.10;;;;;;;9.15;100.00;99674.44;10440770;28;20488;-81
2022/11/23 14:07:07;;;;;;;0.13;0.13;;;;;;;9.02;100.00;99665.72;10444988;28;20080;-81
2022/11/23 14:12:30;;;;;;;0.93;0.40;;;;;;;9.09;100.00;99659.81;10444311;28;20504;-81
2022/11/23 14:17:46;;;;;;;0.35;0.35;;;;;;;8.84;100.00;99664.63;10440371;28;20057;-80
2022/11/23 14:23:16;;;;;;;0.55;0.55;;;;;;;8.64;100.00;99674.63;10439911;28;20561;-81
2022/11/23 14:28:56;;;;;;;8.60;1.13;;;;;;;8.57;100.00;99671.13;10435023;28;20511;-81
2022/11/23 14:34:07;;;;;;;0.57;0.40;;;;;;;8.67;100.00;99676.41;10458045;28;20418;-80
2022/11/23 14:39:29;;;;;;;0.88;0.88;;;;;;;8.59;100.00;99691.66;10439829;28;20475;-80
2022/11/23 14:44:32;;;;;;;1.65;0.85;;;;;;;8.62;100.00;99713.94;10439660;28;20053;-81
2022/11/23 14:49:50;;;;;;;0.60;0.43;;;;;;;8.70;100.00;99712.38;10423739;28;20076;-80
2022/11/23 14:54:57;;;;;;;0.98;0.80;;;;;;;8.70;100.00;99718.38;10439062;28;20492;-81
2022/11/23 15:00:00;;;;;;;1.33;0.90;;;;;;;8.37;100.00;99723.84;10456307;28;20044;-80
2022/11/23 15:05:19;;;;;;;0.43;0.35;;;;;;;8.30;100.00;99737.41;10434980;28;20292;-81
2022/11/23 15:10:46;;;;;;;0.17;0.17;;;;;;;8.42;100.00;99732.47;10436706;28;20049;-80
2022/11/23 15:15:51;;;;;;;0.08;0.08;;;;;;;8.47;100.00;99741.13;10468002;28;20045;-81
2022/11/23 15:20:53;;;;;;;0.08;0.08;;;;;;;8.35;100.00;99751.16;10414025;28;20041;-80
2022/11/23 15:25:58;;;;;;;0.00;0.00;;;;;;;8.42;100.00;99753.84;10456625;28;20044;-80
2022/11/23 15:30:59;;;;;;;2.03;1.85;;;;;;;8.20;100.00;99751.75;10453587;28;20049;-79
2022/11/23 15:36:03;;;;;;;0.40;0.40;;;;;;;8.07;100.00;99750.72;10434427;28;20474;-80
2022/11/23 15:41:05;;;;;;;0.10;0.10;;;;;;;8.10;100.00;99766.13;10436191;28;20432;-80
2022/11/23 15:46:11;;;;;;;0.35;0.30;;;;;;;7.93;100.00;99773.53;10433189;28;20041;-79
2022/11/23 15:51:40;;;;;;;0.47;0.38;;;;;;;7.84;100.00;99794.75;10443409;28;20079;-81
2022/11/23 15:56:47;;;;;;;0.13;0.08;;;;;;;7.44;100.00;99832.38;10436942;28;20040;-81
2022/11/23 16:01:49;;;;;;;0.00;0.00;;;;;;;7.40;100.00;99866.47;10432759;28;20051;-81
2022/11/23 16:06:51;;;;;;;0.08;0.08;;;;;;;7.27;100.00;99893.50;10438419;28;20052;-82
2022/11/23 16:11:53;;;;;;;1.27;0.30;;;;;;;7.10;100.00;99936.66;10439360;28;20045;-80
2022/11/23 16:17:16;;;;;;;0.22;0.22;;;;;;;7.01;100.00;99962.03;10435434;28;20072;-80
2022/11/23 16:22:39;;;;;;;0.22;0.20;;;;;;;6.94;100.00;99995.19;10435676;28;20025;-81
2022/11/23 16:27:41;;;;;;;0.00;0.00;;;;;;;6.93;100.00;100001.13;10435284;28;20037;-80
2022/11/23 16:32:43;;;;;;;0.28;0.10;;;;;;;6.96;100.00;100025.94;10420911;28;20041;-81
2022/11/23 16:37:45;;;;;;;0.20;0.13;;;;;;;6.98;100.00;100020.03;10451000;28;20480;-81
2022/11/23 16:42:51;;;;;;;0.00;0.00;;;;;;;6.94;100.00;100023.34;10426356;28;20041;-81
2022/11/23 16:47:56;;;;;;;0.00;0.00;;;;;;;6.99;100.00;100046.53;10435025;28;20558;-82
2022/11/23 16:53:18;;;;;;;0.10;0.10;;;;;;;6.89;100.00;100054.78;10417837;28;20098;-81
2022/11/23 16:58:20;;;;;;;0.35;0.30;;;;;;;6.91;100.00;100042.88;10451918;28;20072;-81
2022/11/23 17:03:23;;;;;;;0.30;0.28;;;;;;;6.86;100.00;100018.84;10429413;28;20047;-80
2022/11/23 17:08:24;;;;;;;0.73;0.32;;;;;;;6.82;100.00;100079.34;10426482;28;20048;-81
2022/11/23 17:13:28;;;;;;;0.25;0.22;;;;;;;6.81;100.00;100136.50;10428812;28;20060;-81
2022/11/23 17:18:30;;;;;;;0.00;0.00;;;;;;;6.81;100.00;100232.09;10459523;28;20053;-81
2022/11/23 17:23:32;;;;;;;2.22;0.73;;;;;;;6.84;100.00;100246.69;10465235;28;20095;-81
2022/11/23 17:28:34;;;;;;;0.40;0.20;;;;;;;6.89;100.00;100257.91;10441171;28;20049;-80
2022/11/23 17:33:37;;;;;;;0.20;0.20;;;;;;;6.90;100.00;100286.97;10459426;28;20076;-81
2022/11/23 17:38:43;;;;;;;1.73;0.75;;;;;;;6.88;100.00;100299.75;10458585;28;20044;-82
2022/11/23 17:43:45;;;;;;;0.13;0.13;;;;;;;6.81;100.00;100300.38;10441865;28;20041;-80
2022/11/23 17:48:56;;;;;;;0.10;0.10;;;;;;;6.81;100.00;100308.91;10440948;28;20041;-82
2022/11/23 17:54:00;;;;;;;2.13;0.47;;;;;;;6.80;100.00;100329.34;10449623;28;20443;-82
2022/11/23 17:59:03;;;;;;;0.30;0.30;;;;;;;6.77;100.00;100342.03;10438422;28;20045;-79
2022/11/23 18:04:05;;;;;;;0.43;0.43;;;;;;;6.76;100.00;100351.44;10429643;28;20385;-81
2022/11/23 18:09:08;;;;;;;0.60;0.40;;;;;;;6.80;100.00;100363.50;10440116;28;20041;-80
2022/11/23 18:14:09;;;;;;;0.05;0.05;;;;;;;6.81;100.00;100379.75;10415882;28;20045;-80
2022/11/23 18:19:13;;;;;;;0.73;0.45;;;;;;;6.82;100.00;100387.47;10420914;28;20098;-80
2022/11/23 18:24:15;;;;;;;0.00;0.00;;;;;;;6.80;100.00;100398.47;10457873;28;20041;-81
2022/11/23 18:29:16;;;;;;;0.00;0.00;;;;;;;6.81;100.00;100397.66;10426473;28;20102;-81
2022/11/23 18:34:18;;;;;;;0.38;0.22;;;;;;;6.83;100.00;100408.81;10457293;28;20033;-82
2022/11/23 18:39:19;;;;;;;0.45;0.28;;;;;;;6.83;100.00;100416.50;10439231;28;20435;-81
2022/11/23 18:44:21;;;;;;;0.00;0.00;;;;;;;6.88;100.00;100425.22;10439304;28;20048;-81
2022/11/23 18:49:23;;;;;;;0.35;0.20;;;;;;;6.86;100.00;100424.28;10456659;28;20048;-82
2022/11/23 18:54:25;;;;;;;2.65;0.30;;;;;;;6.91;100.00;100416.75;10426565;28;20099;-81
2022/11/23 18:59:26;;;;;;;0.30;0.30;;;;;;;6.94;100.00;100422.84;10455344;28;20041;-81
2022/11/23 19:04:48;;;;;;;2.22;0.50;;;;;;;6.97;100.00;100428.06;10457051;28;20126;-81
2022/11/23 19:09:49;;;;;;;0.70;0.40;;;;;;;6.98;100.00;100439.19;10420938;28;20048;-80
2022/11/23 19:14:51;;;;;;;0.90;0.30;;;;;;;6.99;100.00;100429.00;10456073;28;20041;-80
2022/11/23 19:19:53;;;;;;;1.02;0.20;;;;;;;7.04;100.00;100424.03;10456947;28;20048;-81
2022/11/23 19:24:54;;;;;;;0.10;0.10;;;;;;;7.08;100.00;100425.00;10449034;28;20069;-80
2022/11/23 19:29:56;;;;;;;1.30;0.75;;;;;;;7.06;100.00;100442.00;10434254;28;20049;-80
2022/11/23 19:34:58;;;;;;;0.90;0.63;;;;;;;7.06;100.00;100442.88;10451495;28;20049;-81
2022/11/23 19:39:59;;;;;;;0.43;0.35;;;;;;;7.18;100.00;100452.66;10435489;28;20076;-80
2022/11/23 19:45:02;;;;;;;1.05;0.38;;;;;;;7.20;100.00;100455.25;10455317;28;20068;-81
2022/11/23 19:50:04;;;;;;;0.50;0.10;;;;;;;7.19;100.00;100456.94;10435864;28;20053;-82
2022/11/23 19:55:07;;;;;;;0.05;0.05;;;;;;;6.94;100.00;100453.59;10436112;28;20106;-82
2022/11/23 20:00:09;;;;;;;0.95;0.60;;;;;;;6.84;100.00;100461.78;10434000;28;20247;-81
2022/11/23 20:05:12;;;;;;;0.15;0.15;;;;;;;6.66;100.00;100462.00;10453364;28;20055;-82
2022/11/23 20:10:16;;;;;;;0.80;0.40;;;;;;;6.59;100.00;100476.28;10445212;28;20037;-81
2022/11/23 20:15:18;;;;;;;0.28;0.28;;;;;;;6.67;100.00;100472.28;10435822;28;20110;-81
2022/11/23 20:20:19;;;;;;;0.17;0.13;;;;;;;6.59;100.00;100476.28;10435248;28;20095;-81
2022/11/23 20:25:21;;;;;;;0.30;0.30;;;;;;;6.63;100.00;100480.69;10434970;28;20052;-81
2022/11/23 20:30:22;;;;;;;0.47;0.35;;;;;;;6.51;100.00;100483.69;10425133;28;20080;-82
2022/11/23 20:35:24;;;;;;;0.30;0.30;;;;;;;6.50;100.00;100491.31;10443491;28;20048;-81
2022/11/23 20:40:26;;;;;;;0.65;0.22;;;;;;;6.48;100.00;100500.63;10435171;28;20045;-82
2022/11/23 20:45:28;;;;;;;0.30;0.30;;;;;;;6.64;100.00;100505.50;10415588;28;20052;-81
2022/11/23 20:50:30;;;;;;;0.52;0.20;;;;;;;6.52;100.00;100505.03;10434600;28;20140;-81
2022/11/23 20:55:32;;;;;;;0.77;0.50;;;;;;;6.44;100.00;100526.94;10434687;28;20508;-81
2022/11/23 21:00:33;;;;;;;0.30;0.30;;;;;;;6.49;100.00;100538.22;10456063;28;20083;-81
2022/11/23 21:05:35;;;;;;;1.45;0.52;;;;;;;6.27;100.00;100541.63;10437525;28;20045;-81
2022/11/23 21:16:03;;;;;;;0.68;0.38;;;;;;;6.07;100.00;100558.81;10471898;28;20040;-81
2022/11/23 21:21:05;;;;;;;0.10;0.10;;;;;;;5.93;100.00;100569.31;10427988;28;20052;-81
2022/11/23 21:26:06;;;;;;;0.90;0.63;;;;;;;5.92;100.00;100571.81;10450857;28;20056;-81
2022/11/23 21:31:09;;;;;;;0.17;0.15;;;;;;;5.98;100.00;100582.28;10474129;28;20476;-81
2022/11/23 21:36:11;;;;;;;0.03;0.03;;;;;;;6.02;100.00;100595.28;10459980;28;20059;-80
2022/11/23 21:41:14;;;;;;;0.20;0.20;;;;;;;5.92;100.00;100595.69;10459120;28;20053;-81
2022/11/23 21:46:17;;;;;;;0.85;0.85;;;;;;;5.88;100.00;100601.50;10441749;28;20056;-81
2022/11/23 21:51:19;;;;;;;0.03;0.03;;;;;;;5.69;100.00;100605.91;10425277;28;20083;-81
2022/11/23 21:56:21;;;;;;;0.57;0.30;;;;;;;5.80;100.00;100614.00;10424750;28;20075;-81
2022/11/23 22:01:28;;;;;;;0.90;0.63;;;;;;;5.78;100.00;100614.72;10458435;28;20041;-81
2022/11/23 22:06:30;;;;;;;0.00;0.00;;;;;;;5.98;100.00;100624.09;10444984;28;20099;-81
2022/11/23 22:11:34;;;;;;;4.55;0.47;;;;;;;6.17;100.00;100625.72;10439363;28;20073;-81
2022/11/23 22:16:38;;;;;;;0.60;0.60;;;;;;;6.34;100.00;100639.19;10440542;28;20124;-81
2022/11/23 22:21:43;;;;;;;0.17;0.17;;;;;;;6.35;100.00;100646.03;10437842;28;20497;-81
2022/11/23 22:26:46;;;;;;;0.28;0.28;;;;;;;6.40;100.00;100646.22;10439924;28;20485;-81
2022/11/23 22:31:48;;;;;;;0.70;0.65;;;;;;;6.42;100.00;100644.56;10422053;28;20468;-81
2022/11/23 22:36:50;;;;;;;0.00;0.00;;;;;;;6.55;100.00;100643.38;10457578;28;20539;-82
2022/11/23 22:41:52;;;;;;;0.10;0.05;;;;;;;6.61;100.00;100638.47;10439395;28;20041;-81
2022/11/23 22:46:54;;;;;;;0.10;0.10;;;;;;;6.55;100.00;100633.13;10431793;28;20087;-81
2022/11/23 22:51:56;;;;;;;0.75;0.75;;;;;;;6.52;100.00;100638.13;10455392;28;20071;-81
2022/11/23 22:56:58;;;;;;;0.10;0.10;;;;;;;6.56;100.00;100639.09;10442741;28;20063;-81
2022/11/23 23:01:59;;;;;;;0.00;0.00;;;;;;;6.68;100.00;100639.59;10425192;28;20045;-82
2022/11/23 23:07:01;;;;;;;2.38;0.30;;;;;;;6.59;100.00;100641.78;10451540;28;20496;-82
2022/11/23 23:12:04;;;;;;;0.30;0.20;;;;;;;6.59;100.00;100650.34;10413509;28;20037;-81
2022/11/23 23:17:06;;;;;;;0.00;0.00;;;;;;;6.75;100.00;100656.03;10438377;28;20044;-80
2022/11/23 23:22:08;;;;;;;0.00;0.00;;;;;;;6.77;100.00;100654.41;10436978;28;20045;-81
2022/11/23 23:27:11;;;;;;;0.00;0.00;;;;;;;6.70;100.00;100653.31;10438630;28;20076;-82
2022/11/23 23:32:13;;;;;;;0.22;0.22;;;;;;;6.65;100.00;100665.94;10436295;28;20033;-81
2022/11/23 23:37:15;;;;;;;0.00;0.00;;;;;;;6.67;100.00;100669.41;10467214;28;20052;-81
2022/11/23 23:42:17;;;;;;;0.17;0.10;;;;;;;6.67;100.00;100674.53;10459260;28;20055;-81